sensor_id;sensor_type;location;lat;lon;timestamp;P1;durP1;ratioP1;P2;durP2;ratioP2
1376;SDS011;682;52.502;13.488;2023-02-28T00:00:09;7.57;;;3.47;;
1376;SDS011;682;52.502;13.488;2023-02-28T00:02:38;10.95;;;4.05;;
1376;SDS011;682;52.502;13.488;2023-02-28T00:05:06;11.35;;;4.45;;
1376;SDS011;682;52.502;13.488;2023-02-28T00:07:35;8.82;;;3.83;;
1376;SDS011;682;52.502;13.488;2023-02-28T00:10:02;8.60;;;3.60;;
1376;SDS011;682;52.502;13.488;2023-02-28T00:12:31;8.25;;;4.05;;
1376;SDS011;682;52.502;13.488;2023-02-28T00:14:59;8.77;;;4.00;;
1376;SDS011;682;52.502;13.488;2023-02-28T00:17:27;9.40;;;3.80;;
1376;SDS011;682;52.502;13.488;2023-02-28T00:19:55;9.02;;;3.90;;
1376;SDS011;682;52.502;13.488;2023-02-28T00:22:27;8.80;;;4.15;;
1376;SDS011;682;52.502;13.488;2023-02-28T00:24:54;8.50;;;4.03;;
1376;SDS011;682;52.502;13.488;2023-02-28T00:27:20;8.20;;;3.42;;
1376;SDS011;682;52.502;13.488;2023-02-28T00:29:47;9.10;;;3.65;;
1376;SDS011;682;52.502;13.488;2023-02-28T00:32:16;8.38;;;3.78;;
1376;SDS011;682;52.502;13.488;2023-02-28T00:34:44;8.75;;;4.00;;
1376;SDS011;682;52.502;13.488;2023-02-28T00:37:12;8.93;;;4.28;;
1376;SDS011;682;52.502;13.488;2023-02-28T00:39:39;9.40;;;4.40;;
1376;SDS011;682;52.502;13.488;2023-02-28T00:42:09;7.93;;;3.40;;
1376;SDS011;682;52.502;13.488;2023-02-28T00:44:36;9.98;;;4.22;;
1376;SDS011;682;52.502;13.488;2023-02-28T00:47:04;9.15;;;3.80;;
1376;SDS011;682;52.502;13.488;2023-02-28T00:49:35;13.43;;;4.38;;
1376;SDS011;682;52.502;13.488;2023-02-28T00:52:02;10.63;;;4.90;;
1376;SDS011;682;52.502;13.488;2023-02-28T00:54:29;10.00;;;4.20;;
1376;SDS011;682;52.502;13.488;2023-02-28T00:56:56;9.40;;;4.20;;
1376;SDS011;682;52.502;13.488;2023-02-28T00:59:23;9.10;;;4.55;;
1376;SDS011;682;52.502;13.488;2023-02-28T01:01:50;11.88;;;5.28;;
1376;SDS011;682;52.502;13.488;2023-02-28T01:04:17;10.80;;;4.20;;
1376;SDS011;682;52.502;13.488;2023-02-28T01:06:46;10.95;;;5.25;;
1376;SDS011;682;52.502;13.488;2023-02-28T01:09:13;10.40;;;5.30;;
1376;SDS011;682;52.502;13.488;2023-02-28T01:11:40;10.00;;;5.03;;
1376;SDS011;682;52.502;13.488;2023-02-28T01:14:11;11.45;;;5.30;;
1376;SDS011;682;52.502;13.488;2023-02-28T01:16:39;9.15;;;4.68;;
1376;SDS011;682;52.502;13.488;2023-02-28T01:19:06;8.40;;;3.92;;
1376;SDS011;682;52.502;13.488;2023-02-28T01:21:34;10.60;;;5.00;;
1376;SDS011;682;52.502;13.488;2023-02-28T01:24:03;9.80;;;4.60;;
1376;SDS011;682;52.502;13.488;2023-02-28T01:26:31;10.25;;;4.90;;
1376;SDS011;682;52.502;13.488;2023-02-28T01:28:58;9.05;;;4.25;;
1376;SDS011;682;52.502;13.488;2023-02-28T01:31:25;9.65;;;4.60;;
1376;SDS011;682;52.502;13.488;2023-02-28T01:33:52;9.90;;;4.55;;
1376;SDS011;682;52.502;13.488;2023-02-28T01:36:21;10.80;;;5.05;;
1376;SDS011;682;52.502;13.488;2023-02-28T01:38:49;11.70;;;4.93;;
1376;SDS011;682;52.502;13.488;2023-02-28T01:41:19;11.55;;;4.65;;
1376;SDS011;682;52.502;13.488;2023-02-28T01:43:58;11.45;;;5.57;;
1376;SDS011;682;52.502;13.488;2023-02-28T01:46:30;9.77;;;4.78;;
1376;SDS011;682;52.502;13.488;2023-02-28T01:49:00;11.60;;;4.70;;
1376;SDS011;682;52.502;13.488;2023-02-28T01:51:32;9.50;;;5.38;;
1376;SDS011;682;52.502;13.488;2023-02-28T01:54:05;9.93;;;4.70;;
1376;SDS011;682;52.502;13.488;2023-02-28T01:56:40;11.27;;;5.78;;
1376;SDS011;682;52.502;13.488;2023-02-28T01:59:10;13.02;;;5.20;;
1376;SDS011;682;52.502;13.488;2023-02-28T02:01:40;10.25;;;5.40;;
1376;SDS011;682;52.502;13.488;2023-02-28T02:04:07;12.43;;;5.30;;
1376;SDS011;682;52.502;13.488;2023-02-28T02:06:35;14.07;;;5.88;;
1376;SDS011;682;52.502;13.488;2023-02-28T02:09:08;12.02;;;6.72;;
1376;SDS011;682;52.502;13.488;2023-02-28T02:11:35;13.05;;;6.20;;
1376;SDS011;682;52.502;13.488;2023-02-28T02:14:21;12.15;;;6.35;;
1376;SDS011;682;52.502;13.488;2023-02-28T02:17:07;14.43;;;5.85;;
1376;SDS011;682;52.502;13.488;2023-02-28T02:19:46;12.48;;;6.00;;
1376;SDS011;682;52.502;13.488;2023-02-28T02:22:43;13.60;;;6.50;;
1376;SDS011;682;52.502;13.488;2023-02-28T02:25:33;12.25;;;6.28;;
1376;SDS011;682;52.502;13.488;2023-02-28T02:28:12;15.02;;;6.28;;
1376;SDS011;682;52.502;13.488;2023-02-28T02:34:22;12.45;;;6.25;;
1376;SDS011;682;52.502;13.488;2023-02-28T02:36:59;13.70;;;6.60;;
1376;SDS011;682;52.502;13.488;2023-02-28T02:39:36;10.93;;;5.88;;
1376;SDS011;682;52.502;13.488;2023-02-28T02:42:11;12.27;;;6.13;;
1376;SDS011;682;52.502;13.488;2023-02-28T02:44:47;11.43;;;5.93;;
1376;SDS011;682;52.502;13.488;2023-02-28T02:47:19;10.65;;;5.80;;
1376;SDS011;682;52.502;13.488;2023-02-28T02:49:50;16.67;;;8.40;;
1376;SDS011;682;52.502;13.488;2023-02-28T02:52:22;12.10;;;6.47;;
1376;SDS011;682;52.502;13.488;2023-02-28T02:54:54;12.80;;;6.25;;
1376;SDS011;682;52.502;13.488;2023-02-28T02:57:24;13.40;;;6.68;;
1376;SDS011;682;52.502;13.488;2023-02-28T02:59:54;14.07;;;6.68;;
1376;SDS011;682;52.502;13.488;2023-02-28T03:02:23;11.05;;;6.20;;
1376;SDS011;682;52.502;13.488;2023-02-28T03:04:53;11.82;;;6.35;;
1376;SDS011;682;52.502;13.488;2023-02-28T03:07:26;12.60;;;6.30;;
1376;SDS011;682;52.502;13.488;2023-02-28T03:09:53;13.05;;;7.85;;
1376;SDS011;682;52.502;13.488;2023-02-28T03:12:22;13.02;;;7.68;;
1376;SDS011;682;52.502;13.488;2023-02-28T03:14:59;11.75;;;7.15;;
1376;SDS011;682;52.502;13.488;2023-02-28T03:20:30;10.75;;;6.30;;
1376;SDS011;682;52.502;13.488;2023-02-28T03:23:07;13.55;;;7.28;;
1376;SDS011;682;52.502;13.488;2023-02-28T03:25:43;16.60;;;7.47;;
1376;SDS011;682;52.502;13.488;2023-02-28T03:28:23;13.20;;;7.25;;
1376;SDS011;682;52.502;13.488;2023-02-28T03:30:58;16.88;;;7.25;;
1376;SDS011;682;52.502;13.488;2023-02-28T03:33:30;10.52;;;5.90;;
1376;SDS011;682;52.502;13.488;2023-02-28T03:36:04;10.38;;;6.60;;
1376;SDS011;682;52.502;13.488;2023-02-28T03:38:35;12.43;;;6.38;;
1376;SDS011;682;52.502;13.488;2023-02-28T03:41:10;14.60;;;7.30;;
1376;SDS011;682;52.502;13.488;2023-02-28T03:43:41;14.50;;;7.60;;
1376;SDS011;682;52.502;13.488;2023-02-28T03:46:13;11.90;;;6.65;;
1376;SDS011;682;52.502;13.488;2023-02-28T03:48:48;13.40;;;7.60;;
1376;SDS011;682;52.502;13.488;2023-02-28T03:51:21;12.70;;;7.13;;
1376;SDS011;682;52.502;13.488;2023-02-28T03:53:52;13.73;;;7.57;;
1376;SDS011;682;52.502;13.488;2023-02-28T03:56:23;13.27;;;7.22;;
1376;SDS011;682;52.502;13.488;2023-02-28T03:58:55;12.60;;;7.10;;
1376;SDS011;682;52.502;13.488;2023-02-28T04:01:28;13.90;;;7.25;;
1376;SDS011;682;52.502;13.488;2023-02-28T04:04:01;14.25;;;7.57;;
1376;SDS011;682;52.502;13.488;2023-02-28T04:06:32;14.80;;;7.88;;
1376;SDS011;682;52.502;13.488;2023-02-28T04:08:59;13.20;;;8.27;;
1376;SDS011;682;52.502;13.488;2023-02-28T04:11:27;14.82;;;7.75;;
1376;SDS011;682;52.502;13.488;2023-02-28T04:13:58;10.95;;;7.40;;
1376;SDS011;682;52.502;13.488;2023-02-28T04:16:25;14.15;;;7.28;;
1376;SDS011;682;52.502;13.488;2023-02-28T04:18:52;18.13;;;8.82;;
1376;SDS011;682;52.502;13.488;2023-02-28T04:21:27;15.40;;;8.88;;
1376;SDS011;682;52.502;13.488;2023-02-28T04:23:55;19.00;;;9.52;;
1376;SDS011;682;52.502;13.488;2023-02-28T04:26:27;18.42;;;9.00;;
1376;SDS011;682;52.502;13.488;2023-02-28T04:28:55;17.20;;;9.00;;
1376;SDS011;682;52.502;13.488;2023-02-28T04:31:24;14.27;;;8.10;;
1376;SDS011;682;52.502;13.488;2023-02-28T04:33:51;15.57;;;7.60;;
1376;SDS011;682;52.502;13.488;2023-02-28T04:36:18;12.30;;;7.32;;
1376;SDS011;682;52.502;13.488;2023-02-28T04:38:45;13.73;;;7.40;;
1376;SDS011;682;52.502;13.488;2023-02-28T04:41:14;13.32;;;7.75;;
1376;SDS011;682;52.502;13.488;2023-02-28T04:43:42;12.30;;;7.65;;
1376;SDS011;682;52.502;13.488;2023-02-28T04:46:09;14.43;;;8.50;;
1376;SDS011;682;52.502;13.488;2023-02-28T04:48:39;12.15;;;7.45;;
1376;SDS011;682;52.502;13.488;2023-02-28T04:51:07;14.13;;;8.43;;
1376;SDS011;682;52.502;13.488;2023-02-28T04:53:36;14.85;;;8.63;;
1376;SDS011;682;52.502;13.488;2023-02-28T04:56:04;14.55;;;8.48;;
1376;SDS011;682;52.502;13.488;2023-02-28T04:58:34;14.02;;;8.15;;
1376;SDS011;682;52.502;13.488;2023-02-28T05:01:01;14.35;;;8.23;;
1376;SDS011;682;52.502;13.488;2023-02-28T05:03:29;15.10;;;8.88;;
1376;SDS011;682;52.502;13.488;2023-02-28T05:05:56;15.25;;;9.13;;
1376;SDS011;682;52.502;13.488;2023-02-28T05:08:23;16.30;;;8.25;;
1376;SDS011;682;52.502;13.488;2023-02-28T05:10:50;15.32;;;9.95;;
1376;SDS011;682;52.502;13.488;2023-02-28T05:13:20;14.73;;;9.23;;
1376;SDS011;682;52.502;13.488;2023-02-28T05:15:49;15.55;;;9.50;;
1376;SDS011;682;52.502;13.488;2023-02-28T05:18:16;13.70;;;8.18;;
1376;SDS011;682;52.502;13.488;2023-02-28T05:20:43;14.75;;;8.70;;
1376;SDS011;682;52.502;13.488;2023-02-28T05:23:11;13.70;;;9.00;;
1376;SDS011;682;52.502;13.488;2023-02-28T05:25:39;13.05;;;8.75;;
1376;SDS011;682;52.502;13.488;2023-02-28T05:28:06;14.98;;;8.80;;
1376;SDS011;682;52.502;13.488;2023-02-28T05:30:33;14.65;;;8.77;;
1376;SDS011;682;52.502;13.488;2023-02-28T05:33:02;19.35;;;9.48;;
1376;SDS011;682;52.502;13.488;2023-02-28T05:35:29;16.10;;;9.88;;
1376;SDS011;682;52.502;13.488;2023-02-28T05:37:56;19.05;;;9.25;;
1376;SDS011;682;52.502;13.488;2023-02-28T05:40:23;17.58;;;10.52;;
1376;SDS011;682;52.502;13.488;2023-02-28T05:42:50;17.48;;;10.07;;
1376;SDS011;682;52.502;13.488;2023-02-28T05:45:17;15.60;;;9.00;;
1376;SDS011;682;52.502;13.488;2023-02-28T05:47:44;18.38;;;9.77;;
1376;SDS011;682;52.502;13.488;2023-02-28T05:50:13;14.95;;;8.77;;
1376;SDS011;682;52.502;13.488;2023-02-28T05:52:40;19.27;;;9.85;;
1376;SDS011;682;52.502;13.488;2023-02-28T05:55:07;17.70;;;9.85;;
1376;SDS011;682;52.502;13.488;2023-02-28T05:57:35;14.57;;;9.43;;
1376;SDS011;682;52.502;13.488;2023-02-28T06:00:02;15.95;;;9.38;;
1376;SDS011;682;52.502;13.488;2023-02-28T06:02:29;19.98;;;9.70;;
1376;SDS011;682;52.502;13.488;2023-02-28T06:04:56;15.20;;;8.95;;
1376;SDS011;682;52.502;13.488;2023-02-28T06:07:25;16.67;;;9.35;;
1376;SDS011;682;52.502;13.488;2023-02-28T06:09:52;16.65;;;10.02;;
1376;SDS011;682;52.502;13.488;2023-02-28T06:12:19;15.30;;;9.48;;
1376;SDS011;682;52.502;13.488;2023-02-28T06:14:47;18.42;;;10.68;;
1376;SDS011;682;52.502;13.488;2023-02-28T06:17:14;17.73;;;10.25;;
1376;SDS011;682;52.502;13.488;2023-02-28T06:19:42;24.15;;;14.60;;
1376;SDS011;682;52.502;13.488;2023-02-28T06:22:09;17.50;;;10.60;;
1376;SDS011;682;52.502;13.488;2023-02-28T06:24:37;17.80;;;10.95;;
1376;SDS011;682;52.502;13.488;2023-02-28T06:27:05;16.88;;;10.50;;
1376;SDS011;682;52.502;13.488;2023-02-28T06:29:32;16.92;;;9.38;;
1376;SDS011;682;52.502;13.488;2023-02-28T06:32:01;17.98;;;10.25;;
1376;SDS011;682;52.502;13.488;2023-02-28T06:34:28;15.45;;;9.35;;
1376;SDS011;682;52.502;13.488;2023-02-28T06:36:55;27.08;;;11.25;;
1376;SDS011;682;52.502;13.488;2023-02-28T06:39:27;15.23;;;9.48;;
1376;SDS011;682;52.502;13.488;2023-02-28T06:41:55;16.17;;;10.43;;
1376;SDS011;682;52.502;13.488;2023-02-28T06:44:23;18.42;;;10.30;;
1376;SDS011;682;52.502;13.488;2023-02-28T06:46:50;20.35;;;12.43;;
1376;SDS011;682;52.502;13.488;2023-02-28T06:49:17;17.77;;;11.88;;
1376;SDS011;682;52.502;13.488;2023-02-28T06:51:44;17.80;;;11.50;;
1376;SDS011;682;52.502;13.488;2023-02-28T06:54:12;20.10;;;9.35;;
1376;SDS011;682;52.502;13.488;2023-02-28T06:56:39;17.67;;;10.23;;
1376;SDS011;682;52.502;13.488;2023-02-28T06:59:07;18.85;;;11.00;;
1376;SDS011;682;52.502;13.488;2023-02-28T07:01:34;15.80;;;10.23;;
1376;SDS011;682;52.502;13.488;2023-02-28T07:04:01;21.83;;;13.05;;
1376;SDS011;682;52.502;13.488;2023-02-28T07:06:28;22.77;;;11.90;;
1376;SDS011;682;52.502;13.488;2023-02-28T07:08:55;20.98;;;12.75;;
1376;SDS011;682;52.502;13.488;2023-02-28T07:11:23;19.50;;;12.05;;
1376;SDS011;682;52.502;13.488;2023-02-28T07:13:51;24.20;;;14.13;;
1376;SDS011;682;52.502;13.488;2023-02-28T07:16:20;23.40;;;13.48;;
1376;SDS011;682;52.502;13.488;2023-02-28T07:18:49;24.77;;;15.52;;
1376;SDS011;682;52.502;13.488;2023-02-28T07:21:18;23.60;;;12.25;;
1376;SDS011;682;52.502;13.488;2023-02-28T07:23:45;19.52;;;12.40;;
1376;SDS011;682;52.502;13.488;2023-02-28T07:26:13;20.85;;;12.52;;
1376;SDS011;682;52.502;13.488;2023-02-28T07:28:42;25.95;;;13.02;;
1376;SDS011;682;52.502;13.488;2023-02-28T07:31:10;16.70;;;11.05;;
1376;SDS011;682;52.502;13.488;2023-02-28T07:33:40;20.95;;;11.13;;
1376;SDS011;682;52.502;13.488;2023-02-28T07:36:08;22.33;;;12.48;;
1376;SDS011;682;52.502;13.488;2023-02-28T07:38:40;19.55;;;11.68;;
1376;SDS011;682;52.502;13.488;2023-02-28T07:41:08;17.02;;;10.45;;
1376;SDS011;682;52.502;13.488;2023-02-28T07:43:35;20.63;;;12.70;;
1376;SDS011;682;52.502;13.488;2023-02-28T07:46:06;19.75;;;9.55;;
1376;SDS011;682;52.502;13.488;2023-02-28T07:48:34;15.77;;;8.20;;
1376;SDS011;682;52.502;13.488;2023-02-28T07:51:05;19.02;;;10.07;;
1376;SDS011;682;52.502;13.488;2023-02-28T07:53:33;15.77;;;8.13;;
1376;SDS011;682;52.502;13.488;2023-02-28T07:56:00;21.15;;;8.48;;
1376;SDS011;682;52.502;13.488;2023-02-28T07:58:28;19.45;;;9.40;;
1376;SDS011;682;52.502;13.488;2023-02-28T08:00:56;15.02;;;8.43;;
1376;SDS011;682;52.502;13.488;2023-02-28T08:03:23;16.92;;;8.57;;
1376;SDS011;682;52.502;13.488;2023-02-28T08:05:50;16.40;;;8.70;;
1376;SDS011;682;52.502;13.488;2023-02-28T08:08:20;14.15;;;6.05;;
1376;SDS011;682;52.502;13.488;2023-02-28T08:10:47;14.82;;;6.35;;
1376;SDS011;682;52.502;13.488;2023-02-28T08:13:16;12.20;;;5.68;;
1376;SDS011;682;52.502;13.488;2023-02-28T08:15:43;28.50;;;8.20;;
1376;SDS011;682;52.502;13.488;2023-02-28T08:18:10;11.70;;;5.60;;
1376;SDS011;682;52.502;13.488;2023-02-28T08:20:37;24.33;;;7.20;;
1376;SDS011;682;52.502;13.488;2023-02-28T08:23:04;19.67;;;5.53;;
1376;SDS011;682;52.502;13.488;2023-02-28T08:25:33;14.20;;;6.20;;
1376;SDS011;682;52.502;13.488;2023-02-28T08:28:00;22.02;;;6.78;;
1376;SDS011;682;52.502;13.488;2023-02-28T08:30:27;13.00;;;5.20;;
1376;SDS011;682;52.502;13.488;2023-02-28T08:32:54;14.63;;;5.20;;
1376;SDS011;682;52.502;13.488;2023-02-28T08:35:22;14.00;;;5.70;;
1376;SDS011;682;52.502;13.488;2023-02-28T08:37:50;20.85;;;5.40;;
1376;SDS011;682;52.502;13.488;2023-02-28T08:40:17;11.95;;;3.53;;
1376;SDS011;682;52.502;13.488;2023-02-28T08:42:46;9.70;;;4.38;;
1376;SDS011;682;52.502;13.488;2023-02-28T08:45:14;16.50;;;5.38;;
1376;SDS011;682;52.502;13.488;2023-02-28T08:47:41;11.00;;;4.15;;
1376;SDS011;682;52.502;13.488;2023-02-28T08:50:08;12.18;;;5.03;;
1376;SDS011;682;52.502;13.488;2023-02-28T08:52:36;12.43;;;3.92;;
1376;SDS011;682;52.502;13.488;2023-02-28T08:55:03;7.00;;;2.75;;
1376;SDS011;682;52.502;13.488;2023-02-28T08:57:30;11.38;;;4.57;;
1376;SDS011;682;52.502;13.488;2023-02-28T08:59:59;8.07;;;3.08;;
1376;SDS011;682;52.502;13.488;2023-02-28T09:02:29;11.80;;;4.30;;
1376;SDS011;682;52.502;13.488;2023-02-28T09:04:56;17.87;;;4.20;;
1376;SDS011;682;52.502;13.488;2023-02-28T09:07:24;13.23;;;4.17;;
1376;SDS011;682;52.502;13.488;2023-02-28T09:09:51;10.67;;;4.10;;
1376;SDS011;682;52.502;13.488;2023-02-28T09:12:20;12.43;;;5.63;;
1376;SDS011;682;52.502;13.488;2023-02-28T09:14:47;15.30;;;5.03;;
1376;SDS011;682;52.502;13.488;2023-02-28T09:17:16;10.33;;;4.03;;
1376;SDS011;682;52.502;13.488;2023-02-28T09:19:43;8.80;;;3.00;;
1376;SDS011;682;52.502;13.488;2023-02-28T09:22:10;14.40;;;4.70;;
1376;SDS011;682;52.502;13.488;2023-02-28T09:24:37;7.93;;;3.50;;
1376;SDS011;682;52.502;13.488;2023-02-28T09:27:05;9.67;;;4.20;;
1376;SDS011;682;52.502;13.488;2023-02-28T09:29:32;5.60;;;2.00;;
1376;SDS011;682;52.502;13.488;2023-02-28T09:32:00;9.60;;;2.87;;
1376;SDS011;682;52.502;13.488;2023-02-28T09:34:29;6.40;;;3.00;;
1376;SDS011;682;52.502;13.488;2023-02-28T09:36:56;6.70;;;3.50;;
1376;SDS011;682;52.502;13.488;2023-02-28T09:39:23;9.20;;;3.50;;
1376;SDS011;682;52.502;13.488;2023-02-28T09:41:52;9.57;;;3.80;;
1376;SDS011;682;52.502;13.488;2023-02-28T09:44:20;10.10;;;3.87;;
1376;SDS011;682;52.502;13.488;2023-02-28T09:46:55;6.93;;;3.17;;
1376;SDS011;682;52.502;13.488;2023-02-28T09:49:27;7.90;;;2.50;;
1376;SDS011;682;52.502;13.488;2023-02-28T09:52:01;12.17;;;3.50;;
1376;SDS011;682;52.502;13.488;2023-02-28T09:54:34;14.37;;;5.00;;
1376;SDS011;682;52.502;13.488;2023-02-28T09:57:07;7.10;;;3.00;;
1376;SDS011;682;52.502;13.488;2023-02-28T09:59:40;8.30;;;4.83;;
1376;SDS011;682;52.502;13.488;2023-02-28T10:05:25;8.40;;;3.20;;
1376;SDS011;682;52.502;13.488;2023-02-28T10:08:00;15.17;;;3.93;;
1376;SDS011;682;52.502;13.488;2023-02-28T10:10:34;6.83;;;3.30;;
1376;SDS011;682;52.502;13.488;2023-02-28T10:13:06;8.10;;;4.00;;
1376;SDS011;682;52.502;13.488;2023-02-28T10:15:42;6.37;;;2.40;;
1376;SDS011;682;52.502;13.488;2023-02-28T10:18:11;11.23;;;2.43;;
1376;SDS011;682;52.502;13.488;2023-02-28T10:20:42;6.30;;;2.33;;
1376;SDS011;682;52.502;13.488;2023-02-28T10:23:12;10.13;;;3.23;;
1376;SDS011;682;52.502;13.488;2023-02-28T10:25:47;6.30;;;2.50;;
1376;SDS011;682;52.502;13.488;2023-02-28T10:28:21;6.40;;;2.67;;
1376;SDS011;682;52.502;13.488;2023-02-28T10:30:48;6.73;;;2.63;;
1376;SDS011;682;52.502;13.488;2023-02-28T10:33:18;10.10;;;3.73;;
1376;SDS011;682;52.502;13.488;2023-02-28T10:35:49;7.83;;;3.30;;
1376;SDS011;682;52.502;13.488;2023-02-28T10:38:17;7.80;;;3.20;;
1376;SDS011;682;52.502;13.488;2023-02-28T10:40:50;5.50;;;2.70;;
1376;SDS011;682;52.502;13.488;2023-02-28T10:43:19;7.53;;;2.70;;
1376;SDS011;682;52.502;13.488;2023-02-28T10:45:55;8.60;;;2.90;;
1376;SDS011;682;52.502;13.488;2023-02-28T10:48:36;7.93;;;2.80;;
1376;SDS011;682;52.502;13.488;2023-02-28T10:51:08;6.57;;;2.93;;
1376;SDS011;682;52.502;13.488;2023-02-28T10:53:47;7.53;;;3.30;;
1376;SDS011;682;52.502;13.488;2023-02-28T10:56:19;8.17;;;4.30;;
1376;SDS011;682;52.502;13.488;2023-02-28T10:58:49;10.43;;;3.80;;
1376;SDS011;682;52.502;13.488;2023-02-28T11:01:22;8.17;;;4.20;;
1376;SDS011;682;52.502;13.488;2023-02-28T11:03:50;11.73;;;4.30;;
1376;SDS011;682;52.502;13.488;2023-02-28T11:06:20;9.23;;;4.23;;
1376;SDS011;682;52.502;13.488;2023-02-28T11:08:50;6.60;;;3.50;;
1376;SDS011;682;52.502;13.488;2023-02-28T11:11:20;10.90;;;4.40;;
1376;SDS011;682;52.502;13.488;2023-02-28T11:13:50;17.40;;;5.47;;
1376;SDS011;682;52.502;13.488;2023-02-28T11:16:20;7.10;;;3.70;;
1376;SDS011;682;52.502;13.488;2023-02-28T11:18:48;5.50;;;3.17;;
1376;SDS011;682;52.502;13.488;2023-02-28T11:21:17;8.20;;;4.30;;
1376;SDS011;682;52.502;13.488;2023-02-28T11:24:00;9.93;;;3.80;;
1376;SDS011;682;52.502;13.488;2023-02-28T11:26:37;9.63;;;4.07;;
1376;SDS011;682;52.502;13.488;2023-02-28T11:29:09;8.00;;;3.80;;
1376;SDS011;682;52.502;13.488;2023-02-28T11:31:39;9.10;;;4.20;;
1376;SDS011;682;52.502;13.488;2023-02-28T11:36:54;8.73;;;4.57;;
1376;SDS011;682;52.502;13.488;2023-02-28T11:39:23;7.13;;;3.97;;
1376;SDS011;682;52.502;13.488;2023-02-28T11:41:55;8.23;;;3.90;;
1376;SDS011;682;52.502;13.488;2023-02-28T11:44:37;9.60;;;4.83;;
1376;SDS011;682;52.502;13.488;2023-02-28T11:47:21;6.33;;;3.90;;
1376;SDS011;682;52.502;13.488;2023-02-28T11:50:00;6.90;;;4.00;;
1376;SDS011;682;52.502;13.488;2023-02-28T11:52:42;9.17;;;4.40;;
1376;SDS011;682;52.502;13.488;2023-02-28T11:55:16;12.27;;;5.23;;
1376;SDS011;682;52.502;13.488;2023-02-28T11:57:58;6.80;;;4.30;;
1376;SDS011;682;52.502;13.488;2023-02-28T12:00:44;9.43;;;3.60;;
1376;SDS011;682;52.502;13.488;2023-02-28T12:03:38;8.70;;;4.30;;
1376;SDS011;682;52.502;13.488;2023-02-28T12:06:15;8.03;;;4.67;;
1376;SDS011;682;52.502;13.488;2023-02-28T12:08:51;7.07;;;3.90;;
1376;SDS011;682;52.502;13.488;2023-02-28T12:11:30;11.10;;;5.23;;
1376;SDS011;682;52.502;13.488;2023-02-28T12:14:22;6.00;;;3.80;;
1376;SDS011;682;52.502;13.488;2023-02-28T12:17:05;8.27;;;7.40;;
1376;SDS011;682;52.502;13.488;2023-02-28T12:19:44;13.13;;;5.27;;
1376;SDS011;682;52.502;13.488;2023-02-28T12:22:24;7.80;;;3.57;;
1376;SDS011;682;52.502;13.488;2023-02-28T12:28:07;7.83;;;3.97;;
1376;SDS011;682;52.502;13.488;2023-02-28T12:30:37;6.73;;;3.27;;
1376;SDS011;682;52.502;13.488;2023-02-28T12:33:10;5.30;;;2.80;;
1376;SDS011;682;52.502;13.488;2023-02-28T12:35:43;9.60;;;3.77;;
1376;SDS011;682;52.502;13.488;2023-02-28T12:38:17;7.73;;;3.60;;
1376;SDS011;682;52.502;13.488;2023-02-28T12:40:49;7.57;;;3.80;;
1376;SDS011;682;52.502;13.488;2023-02-28T12:43:22;9.67;;;4.03;;
1376;SDS011;682;52.502;13.488;2023-02-28T12:45:55;8.53;;;3.90;;
1376;SDS011;682;52.502;13.488;2023-02-28T12:48:26;7.60;;;3.47;;
1376;SDS011;682;52.502;13.488;2023-02-28T12:50:58;5.80;;;3.20;;
1376;SDS011;682;52.502;13.488;2023-02-28T12:53:26;7.20;;;3.60;;
1376;SDS011;682;52.502;13.488;2023-02-28T12:56:00;5.83;;;2.77;;
1376;SDS011;682;52.502;13.488;2023-02-28T12:58:36;5.37;;;3.13;;
1376;SDS011;682;52.502;13.488;2023-02-28T13:01:14;6.07;;;3.53;;
1376;SDS011;682;52.502;13.488;2023-02-28T13:04:31;15.33;;;5.67;;
1376;SDS011;682;52.502;13.488;2023-02-28T13:07:29;6.40;;;3.37;;
1376;SDS011;682;52.502;13.488;2023-02-28T13:10:09;8.23;;;5.00;;
1376;SDS011;682;52.502;13.488;2023-02-28T13:12:37;8.20;;;4.13;;
1376;SDS011;682;52.502;13.488;2023-02-28T13:15:18;9.10;;;3.93;;
1376;SDS011;682;52.502;13.488;2023-02-28T13:17:50;9.07;;;3.27;;
1376;SDS011;682;52.502;13.488;2023-02-28T13:20:19;8.70;;;4.00;;
1376;SDS011;682;52.502;13.488;2023-02-28T13:22:49;10.20;;;5.40;;
1376;SDS011;682;52.502;13.488;2023-02-28T13:31:26;8.70;;;3.90;;
1376;SDS011;682;52.502;13.488;2023-02-28T13:34:12;7.20;;;3.17;;
1376;SDS011;682;52.502;13.488;2023-02-28T13:36:41;8.97;;;3.80;;
1376;SDS011;682;52.502;13.488;2023-02-28T13:42:30;11.83;;;7.03;;
1376;SDS011;682;52.502;13.488;2023-02-28T13:45:25;8.70;;;4.17;;
1376;SDS011;682;52.502;13.488;2023-02-28T13:47:58;17.23;;;6.13;;
1376;SDS011;682;52.502;13.488;2023-02-28T13:50:29;11.97;;;4.60;;
1376;SDS011;682;52.502;13.488;2023-02-28T13:56:03;8.27;;;4.40;;
1376;SDS011;682;52.502;13.488;2023-02-28T13:58:39;9.10;;;4.20;;
1376;SDS011;682;52.502;13.488;2023-02-28T14:01:16;7.60;;;3.60;;
1376;SDS011;682;52.502;13.488;2023-02-28T14:04:09;12.63;;;5.77;;
1376;SDS011;682;52.502;13.488;2023-02-28T14:06:56;8.20;;;4.93;;
1376;SDS011;682;52.502;13.488;2023-02-28T14:09:25;15.33;;;3.70;;
1376;SDS011;682;52.502;13.488;2023-02-28T14:11:54;6.43;;;3.83;;
1376;SDS011;682;52.502;13.488;2023-02-28T14:17:28;11.20;;;3.90;;
1376;SDS011;682;52.502;13.488;2023-02-28T14:19:57;9.30;;;4.53;;
1376;SDS011;682;52.502;13.488;2023-02-28T14:25:22;9.80;;;4.10;;
1376;SDS011;682;52.502;13.488;2023-02-28T14:28:01;9.40;;;4.87;;
1376;SDS011;682;52.502;13.488;2023-02-28T14:30:43;7.60;;;4.17;;
1376;SDS011;682;52.502;13.488;2023-02-28T14:36:16;8.80;;;3.87;;
1376;SDS011;682;52.502;13.488;2023-02-28T14:38:48;14.93;;;4.83;;
1376;SDS011;682;52.502;13.488;2023-02-28T14:41:20;10.60;;;4.50;;
1376;SDS011;682;52.502;13.488;2023-02-28T14:43:56;8.17;;;3.73;;
1376;SDS011;682;52.502;13.488;2023-02-28T14:46:25;11.47;;;4.70;;
1376;SDS011;682;52.502;13.488;2023-02-28T14:48:58;10.27;;;6.30;;
1376;SDS011;682;52.502;13.488;2023-02-28T14:51:26;12.07;;;4.57;;
1376;SDS011;682;52.502;13.488;2023-02-28T14:53:56;9.00;;;5.10;;
1376;SDS011;682;52.502;13.488;2023-02-28T14:56:27;9.80;;;5.27;;
1376;SDS011;682;52.502;13.488;2023-02-28T14:59:02;14.37;;;5.10;;
1376;SDS011;682;52.502;13.488;2023-02-28T15:01:29;8.60;;;5.00;;
1376;SDS011;682;52.502;13.488;2023-02-28T15:03:59;11.25;;;4.95;;
1376;SDS011;682;52.502;13.488;2023-02-28T15:06:29;10.13;;;4.30;;
1376;SDS011;682;52.502;13.488;2023-02-28T15:09:07;9.68;;;5.00;;
1376;SDS011;682;52.502;13.488;2023-02-28T15:11:35;9.73;;;5.00;;
1376;SDS011;682;52.502;13.488;2023-02-28T15:14:03;14.90;;;5.57;;
1376;SDS011;682;52.502;13.488;2023-02-28T15:16:31;14.17;;;5.50;;
1376;SDS011;682;52.502;13.488;2023-02-28T15:19:02;8.15;;;4.10;;
1376;SDS011;682;52.502;13.488;2023-02-28T15:21:34;9.10;;;3.95;;
1376;SDS011;682;52.502;13.488;2023-02-28T15:24:04;13.07;;;5.63;;
1376;SDS011;682;52.502;13.488;2023-02-28T15:26:39;11.88;;;5.13;;
1376;SDS011;682;52.502;13.488;2023-02-28T15:29:11;8.93;;;4.30;;
1376;SDS011;682;52.502;13.488;2023-02-28T15:31:43;14.07;;;8.98;;
1376;SDS011;682;52.502;13.488;2023-02-28T15:34:17;8.32;;;4.03;;
1376;SDS011;682;52.502;13.488;2023-02-28T15:36:47;11.40;;;4.53;;
1376;SDS011;682;52.502;13.488;2023-02-28T15:39:21;12.65;;;5.05;;
1376;SDS011;682;52.502;13.488;2023-02-28T15:41:51;10.65;;;4.38;;
1376;SDS011;682;52.502;13.488;2023-02-28T15:44:35;17.48;;;8.57;;
1376;SDS011;682;52.502;13.488;2023-02-28T15:47:02;9.05;;;4.50;;
1376;SDS011;682;52.502;13.488;2023-02-28T15:49:34;7.43;;;4.45;;
1376;SDS011;682;52.502;13.488;2023-02-28T15:52:10;11.15;;;5.32;;
1376;SDS011;682;52.502;13.488;2023-02-28T15:54:44;9.73;;;4.55;;
1376;SDS011;682;52.502;13.488;2023-02-28T15:57:13;8.23;;;3.90;;
1376;SDS011;682;52.502;13.488;2023-02-28T15:59:45;10.85;;;4.63;;
1376;SDS011;682;52.502;13.488;2023-02-28T16:02:18;8.38;;;3.88;;
1376;SDS011;682;52.502;13.488;2023-02-28T16:05:16;8.07;;;3.90;;